createdAt,value
2019-03-22T00:01:30.687Z,2.83
2019-03-22T00:04:01.874Z,2.78
2019-03-22T00:06:32.822Z,2.77
2019-03-22T00:09:04.403Z,2.67
2019-03-22T00:11:35.439Z,2.58
2019-03-22T00:14:06.359Z,2.63
2019-03-22T00:16:37.242Z,2.62
2019-03-22T00:19:08.136Z,2.62
2019-03-22T00:21:39.068Z,2.60
2019-03-22T00:24:10.260Z,2.54
2019-03-22T00:26:41.129Z,2.48
2019-03-22T00:29:12.048Z,2.49
2019-03-22T00:31:42.957Z,2.52
2019-03-22T00:34:13.878Z,2.50
2019-03-22T00:36:44.715Z,2.41
2019-03-22T00:39:15.861Z,2.37
2019-03-22T00:41:48.353Z,2.35
2019-03-22T00:44:19.332Z,2.33
2019-03-22T00:46:50.189Z,2.28
2019-03-22T00:49:21.190Z,2.22
2019-03-22T00:51:52.136Z,2.17
2019-03-22T00:54:23.215Z,2.17
2019-03-22T00:56:54.194Z,2.20
2019-03-22T00:59:25.061Z,2.24
2019-03-22T01:01:56.027Z,2.21
2019-03-22T01:04:26.975Z,2.20
2019-03-22T01:06:58.007Z,2.20
2019-03-22T01:09:28.956Z,2.21
2019-03-22T01:12:00.023Z,2.20
2019-03-22T01:14:30.931Z,2.15
2019-03-22T01:17:01.910Z,2.15
2019-03-22T01:19:32.913Z,2.12
2019-03-22T01:22:04.000Z,2.13
2019-03-22T01:24:34.966Z,2.14
2019-03-22T01:27:05.919Z,2.10
2019-03-22T01:29:36.934Z,1.99
2019-03-22T01:32:07.896Z,1.87
2019-03-22T01:34:39.048Z,1.81
2019-03-22T01:37:10.023Z,1.79
2019-03-22T01:39:40.937Z,1.76
2019-03-22T01:42:11.976Z,1.75
2019-03-22T01:44:42.962Z,1.73
2019-03-22T01:47:14.024Z,1.75
2019-03-22T01:49:45.089Z,1.73
2019-03-22T01:52:16.112Z,1.68
2019-03-22T01:54:47.148Z,1.67
2019-03-22T01:57:18.038Z,1.67
2019-03-22T01:59:48.912Z,1.67
2019-03-22T02:02:19.925Z,1.67
2019-03-22T02:04:50.773Z,1.64
2019-03-22T02:07:21.774Z,1.59
2019-03-22T02:09:52.826Z,1.52
2019-03-22T02:12:23.750Z,1.44
2019-03-22T02:14:54.727Z,1.42
2019-03-22T02:17:25.739Z,1.37
2019-03-22T02:19:56.803Z,1.31
2019-03-22T02:22:27.852Z,1.27
2019-03-22T02:24:58.716Z,1.30
2019-03-22T02:27:29.802Z,1.34
2019-03-22T02:30:00.779Z,1.35
2019-03-22T02:32:31.743Z,1.37
2019-03-22T02:35:02.759Z,1.44
2019-03-22T02:37:33.695Z,1.44
2019-03-22T02:40:07.232Z,1.36
2019-03-22T02:42:38.214Z,1.31
2019-03-22T02:45:11.650Z,1.28
2019-03-22T02:47:42.676Z,1.22
2019-03-22T02:50:18.630Z,1.12
2019-03-22T02:52:47.330Z,1.05
2019-03-22T02:55:18.364Z,1.06
2019-03-22T02:57:49.314Z,1.08
2019-03-22T03:00:20.405Z,1.09
2019-03-22T03:02:51.313Z,1.06
2019-03-22T03:05:22.895Z,0.99
2019-03-22T03:07:54.002Z,0.91
2019-03-22T03:10:24.978Z,0.87
2019-03-22T03:12:56.459Z,0.85
2019-03-22T03:15:27.573Z,0.82
2019-03-22T03:17:58.567Z,0.84
2019-03-22T03:20:29.569Z,0.79
2019-03-22T03:23:00.541Z,0.78
2019-03-22T03:25:31.523Z,0.72
2019-03-22T03:28:02.629Z,0.70
2019-03-22T03:30:34.064Z,0.67
2019-03-22T03:33:05.309Z,0.61
2019-03-22T03:35:36.326Z,0.59
2019-03-22T03:38:07.577Z,0.53
2019-03-22T03:40:38.595Z,0.49
2019-03-22T03:43:09.729Z,0.46
2019-03-22T03:45:40.745Z,0.43
2019-03-22T03:48:11.734Z,0.45
2019-03-22T03:50:42.663Z,0.47
2019-03-22T03:53:13.839Z,0.43
2019-03-22T03:55:44.857Z,0.40
2019-03-22T03:58:16.044Z,0.44
2019-03-22T04:00:47.133Z,0.40
2019-03-22T04:03:18.089Z,0.33
2019-03-22T04:05:49.081Z,0.26
2019-03-22T04:08:20.075Z,0.25
2019-03-22T04:10:50.972Z,0.22
2019-03-22T04:13:21.922Z,0.22
2019-03-22T04:15:52.963Z,0.21
2019-03-22T04:18:23.911Z,0.26
2019-03-22T04:20:54.763Z,0.25
2019-03-22T04:23:25.884Z,0.20
2019-03-22T04:25:56.833Z,0.17
2019-03-22T04:28:27.860Z,0.13
2019-03-22T04:30:58.924Z,0.11
2019-03-22T04:33:29.893Z,0.11
2019-03-22T04:36:00.769Z,0.11
2019-03-22T04:38:31.694Z,0.16
2019-03-22T04:41:02.550Z,0.07
2019-03-22T04:43:33.587Z,0.03
2019-03-22T04:46:05.292Z,0.05
2019-03-22T04:48:37.908Z,0.02
2019-03-22T04:51:10.192Z,-0.01
2019-03-22T04:53:44.217Z,-0.08
2019-03-22T04:56:18.653Z,-0.10
2019-03-22T04:58:51.694Z,-0.14
2019-03-22T05:01:24.563Z,-0.15
2019-03-22T05:03:58.866Z,-0.18
2019-03-22T05:06:29.885Z,-0.17
2019-03-22T05:09:01.801Z,-0.08
2019-03-22T05:11:33.239Z,-0.11
2019-03-22T05:14:05.686Z,-0.06
2019-03-22T05:16:42.737Z,-0.03
2019-03-22T05:19:14.682Z,0.04
2019-03-22T05:21:46.787Z,0.10
2019-03-22T05:24:19.636Z,0.13
2019-03-22T05:26:51.732Z,0.14
2019-03-22T05:29:30.626Z,0.08
2019-03-22T05:32:04.701Z,0.05
2019-03-22T05:34:35.699Z,0.05
2019-03-22T05:37:06.743Z,0.06
2019-03-22T05:39:40.632Z,0.13
2019-03-22T05:42:14.805Z,0.16
2019-03-22T05:44:45.802Z,0.21
2019-03-22T05:47:19.245Z,0.24
2019-03-22T05:49:50.159Z,0.26
2019-03-22T05:52:22.763Z,0.36
2019-03-22T05:54:53.661Z,0.44
2019-03-22T05:57:24.635Z,0.52
2019-03-22T05:59:55.576Z,0.58
2019-03-22T06:02:26.535Z,0.84
2019-03-22T06:04:57.550Z,1.13
2019-03-22T06:07:31.068Z,1.40
2019-03-22T06:10:02.143Z,1.67
2019-03-22T06:12:33.095Z,1.88
2019-03-22T06:15:10.748Z,2.01
2019-03-22T06:17:51.133Z,2.23
2019-03-22T06:20:14.784Z,2.59
2019-03-22T06:22:45.781Z,2.89
2019-03-22T06:25:16.884Z,3.20
2019-03-22T06:27:47.824Z,3.30
2019-03-22T06:30:18.903Z,3.23
2019-03-22T06:32:49.861Z,3.15
2019-03-22T06:35:20.889Z,3.18
2019-03-22T06:37:51.803Z,3.06
2019-03-22T06:40:22.694Z,3.04
2019-03-22T06:42:53.665Z,3.13
2019-03-22T06:45:24.616Z,3.23
2019-03-22T06:47:55.686Z,3.34
2019-03-22T06:50:26.647Z,3.49
2019-03-22T06:52:57.481Z,3.62
2019-03-22T06:55:28.400Z,3.79
2019-03-22T06:57:59.348Z,4.05
2019-03-22T07:00:30.458Z,4.36
2019-03-22T07:03:02.025Z,4.64
2019-03-22T07:05:33.024Z,4.89
2019-03-22T07:08:04.085Z,5.06
2019-03-22T07:10:35.008Z,5.23
2019-03-22T07:13:06.242Z,5.58
2019-03-22T07:15:37.215Z,5.97
2019-03-22T07:18:08.068Z,6.39
2019-03-22T07:20:38.944Z,6.69
2019-03-22T07:23:09.896Z,7.02
2019-03-22T07:25:40.824Z,7.30
2019-03-22T07:28:11.818Z,7.66
2019-03-22T07:30:43.005Z,7.85
2019-03-22T07:33:13.978Z,8.13
2019-03-22T07:35:45.096Z,8.40
2019-03-22T07:38:16.068Z,8.55
2019-03-22T07:40:47.103Z,8.86
2019-03-22T07:43:17.990Z,9.08
2019-03-22T07:45:49.154Z,9.31
2019-03-22T07:48:20.071Z,9.51
2019-03-22T07:50:51.096Z,9.57
2019-03-22T07:53:22.410Z,9.75
2019-03-22T07:55:53.446Z,9.84
2019-03-22T07:58:24.609Z,10.17
2019-03-22T08:00:55.605Z,10.48
2019-03-22T08:03:26.754Z,10.88
2019-03-22T08:05:57.692Z,11.22
2019-03-22T08:08:28.779Z,11.37
2019-03-22T08:10:59.660Z,11.40
2019-03-22T08:13:30.620Z,11.45
2019-03-22T08:16:01.670Z,11.62
2019-03-22T08:18:32.681Z,11.64
2019-03-22T08:21:03.696Z,12.04
2019-03-22T08:23:34.751Z,12.47
2019-03-22T08:26:05.782Z,12.83
2019-03-22T08:28:36.742Z,13.02
2019-03-22T08:31:08.166Z,13.24
2019-03-22T08:33:39.213Z,13.24
2019-03-22T08:36:10.300Z,13.27
2019-03-22T08:38:41.263Z,13.53
2019-03-22T08:41:12.243Z,14.04
2019-03-22T08:43:43.409Z,14.07
2019-03-22T08:46:14.384Z,14.59
2019-03-22T08:48:45.786Z,15.44
2019-03-22T08:51:16.710Z,15.91
2019-03-22T08:53:55.114Z,16.38
2019-03-22T08:56:20.466Z,16.50
2019-03-22T08:58:51.449Z,16.79
2019-03-22T09:01:22.500Z,17.06
2019-03-22T09:03:53.699Z,17.03
2019-03-22T09:06:24.684Z,17.10
2019-03-22T09:08:55.891Z,17.30
2019-03-22T09:11:27.158Z,17.76
2019-03-22T09:13:58.465Z,18.40
2019-03-22T09:16:30.816Z,18.36
2019-03-22T09:19:01.949Z,18.63
2019-03-22T09:21:32.886Z,18.70
2019-03-22T09:24:04.003Z,18.94
2019-03-22T09:26:47.119Z,18.65
2019-03-22T09:29:07.643Z,18.72
2019-03-22T09:31:38.716Z,18.74
2019-03-22T09:34:09.817Z,18.84
2019-03-22T09:36:40.856Z,18.88
2019-03-22T09:39:11.796Z,19.03
2019-03-22T09:41:42.956Z,19.07
2019-03-22T09:44:13.824Z,19.60
2019-03-22T09:46:44.852Z,19.60
2019-03-22T09:49:15.779Z,19.61
2019-03-22T09:51:46.905Z,19.97
2019-03-22T09:54:18.035Z,20.25
2019-03-22T09:56:49.009Z,20.50
2019-03-22T09:59:20.235Z,20.86
2019-03-22T10:01:51.330Z,21.54
2019-03-22T10:04:22.342Z,21.58
2019-03-22T10:06:53.284Z,21.65
2019-03-22T10:09:24.283Z,21.04
2019-03-22T10:11:55.303Z,20.88
2019-03-22T10:14:26.236Z,21.14
2019-03-22T10:16:57.505Z,20.45
2019-03-22T10:19:28.481Z,20.88
2019-03-22T10:21:59.526Z,21.27
2019-03-22T10:24:30.425Z,21.41
2019-03-22T10:27:01.571Z,22.03
2019-03-22T10:29:33.137Z,22.54
2019-03-22T10:32:04.140Z,22.30
2019-03-22T10:34:35.030Z,22.17
2019-03-22T10:37:06.054Z,21.47
2019-03-22T10:39:36.987Z,21.21
2019-03-22T10:42:08.038Z,21.91
2019-03-22T10:44:39.551Z,22.84
2019-03-22T10:47:10.767Z,23.02
2019-03-22T10:49:42.256Z,22.00
2019-03-22T10:52:13.480Z,21.69
2019-03-22T10:54:44.520Z,21.17
2019-03-22T10:57:15.547Z,20.84
2019-03-22T10:59:46.654Z,20.65
2019-03-22T11:02:17.678Z,20.35
2019-03-22T11:04:48.647Z,20.29
2019-03-22T11:07:19.842Z,20.50
2019-03-22T11:09:50.842Z,20.50
2019-03-22T11:12:21.946Z,20.93
2019-03-22T11:14:52.893Z,21.20
2019-03-22T11:17:23.891Z,21.38
2019-03-22T11:20:01.339Z,22.16
2019-03-22T11:22:32.406Z,23.35
2019-03-22T11:25:04.950Z,24.10
2019-03-22T11:27:37.488Z,24.87
2019-03-22T11:30:12.207Z,25.65
2019-03-22T11:32:43.960Z,25.15
2019-03-22T11:35:15.162Z,25.30
2019-03-22T11:37:46.185Z,24.54
2019-03-22T11:40:20.495Z,22.59
2019-03-22T11:42:51.766Z,23.88
2019-03-22T11:45:24.686Z,23.74
2019-03-22T11:47:56.041Z,24.22
2019-03-22T11:50:31.340Z,24.17
2019-03-22T11:53:02.426Z,23.66
2019-03-22T11:55:33.794Z,22.84
2019-03-22T11:58:06.431Z,21.53
2019-03-22T12:00:37.665Z,22.13
2019-03-22T12:03:08.798Z,21.45
2019-03-22T12:05:44.562Z,21.38
2019-03-22T12:08:15.720Z,21.83
2019-03-22T12:10:46.918Z,22.56
2019-03-22T12:13:18.201Z,24.16
2019-03-22T12:15:49.281Z,25.96
2019-03-22T12:18:20.706Z,25.75
2019-03-22T12:20:52.464Z,23.50
2019-03-22T12:23:24.185Z,23.76
2019-03-22T12:25:57.572Z,24.36
2019-03-22T12:28:31.273Z,26.19
2019-03-22T12:31:02.531Z,25.73
2019-03-22T12:33:33.777Z,24.16
2019-03-22T12:36:04.965Z,24.46
2019-03-22T12:38:39.180Z,24.30
2019-03-22T12:41:10.634Z,25.04
2019-03-22T12:43:41.781Z,25.75
2019-03-22T12:46:12.992Z,25.75
2019-03-22T12:48:43.990Z,24.81
2019-03-22T12:51:15.173Z,26.15
2019-03-22T12:53:46.245Z,25.09
2019-03-22T12:56:17.318Z,25.09
2019-03-22T12:58:48.417Z,27.05
2019-03-22T13:01:19.467Z,26.87
2019-03-22T13:03:50.563Z,27.89
2019-03-22T13:06:22.011Z,28.69
2019-03-22T13:08:53.287Z,28.69
2019-03-22T13:11:24.388Z,27.78
2019-03-22T13:13:57.714Z,25.52
2019-03-22T13:16:31.715Z,26.63
2019-03-22T13:19:02.915Z,27.46
2019-03-22T13:21:34.002Z,27.38
2019-03-22T13:24:05.537Z,26.76
2019-03-22T13:26:36.587Z,25.34
2019-03-22T13:29:10.830Z,26.24
2019-03-22T13:31:41.914Z,26.91
2019-03-22T13:34:15.847Z,25.50
2019-03-22T13:36:48.559Z,24.77
2019-03-22T13:39:19.694Z,26.03
2019-03-22T13:41:51.781Z,26.03
2019-03-22T13:44:24.411Z,28.01
2019-03-22T13:46:56.932Z,27.88
2019-03-22T13:49:33.109Z,27.26
2019-03-22T13:52:07.070Z,27.23
2019-03-22T13:54:38.138Z,26.22
2019-03-22T13:57:11.099Z,25.77
2019-03-22T13:59:42.206Z,26.63
2019-03-22T14:02:13.190Z,27.11
2019-03-22T14:04:45.694Z,26.90
2019-03-22T14:07:17.032Z,27.21
2019-03-22T14:09:47.971Z,28.58
2019-03-22T14:12:19.016Z,27.76
2019-03-22T14:14:50.052Z,27.34
2019-03-22T14:17:25.507Z,26.56
2019-03-22T14:19:56.697Z,27.12
2019-03-22T14:22:27.974Z,27.82
2019-03-22T14:24:59.165Z,27.60
2019-03-22T14:27:30.336Z,27.30
2019-03-22T14:30:01.433Z,26.93
2019-03-22T14:32:32.492Z,26.61
2019-03-22T14:35:04.440Z,25.80
2019-03-22T14:37:35.493Z,25.73
2019-03-22T14:40:08.126Z,26.10
2019-03-22T14:42:39.208Z,26.04
2019-03-22T14:45:11.403Z,25.46
2019-03-22T14:47:42.824Z,24.53
2019-03-22T14:50:13.959Z,24.53
2019-03-22T14:52:45.061Z,25.63
2019-03-22T14:55:16.175Z,24.14
2019-03-22T14:57:49.326Z,25.24
2019-03-22T15:00:20.198Z,24.81
2019-03-22T15:02:51.422Z,24.79
2019-03-22T15:05:22.627Z,25.80
2019-03-22T15:07:54.010Z,25.75
2019-03-22T15:10:25.099Z,25.75
2019-03-22T15:12:56.079Z,26.31
2019-03-22T15:15:28.680Z,26.29
2019-03-22T15:18:04.436Z,25.43
2019-03-22T15:20:39.815Z,26.14
2019-03-22T15:23:24.962Z,26.53
2019-03-22T15:26:03.592Z,27.30
2019-03-22T15:28:48.345Z,27.30
2019-03-22T15:31:26.884Z,25.38
2019-03-22T15:33:59.971Z,25.38
2019-03-22T15:36:44.366Z,24.25
2019-03-22T15:39:24.100Z,24.24
2019-03-22T15:41:55.446Z,24.24
2019-03-22T15:44:26.493Z,24.44
2019-03-22T15:46:57.412Z,24.25
2019-03-22T15:49:28.304Z,23.37
2019-03-22T15:51:59.346Z,23.51
2019-03-22T15:54:30.270Z,23.66
2019-03-22T15:57:01.967Z,23.85
2019-03-22T15:59:32.985Z,23.73
2019-03-22T16:02:04.260Z,23.86
2019-03-22T16:04:35.286Z,23.56
2019-03-22T16:07:06.844Z,24.01
2019-03-22T16:09:37.766Z,24.19
2019-03-22T16:12:08.809Z,23.81
2019-03-22T16:14:39.734Z,23.19
2019-03-22T16:17:10.631Z,22.97
2019-03-22T16:19:41.732Z,22.22
2019-03-22T16:22:12.742Z,22.16
2019-03-22T16:24:43.813Z,22.12
2019-03-22T16:27:14.732Z,22.11
2019-03-22T16:29:49.918Z,21.74
2019-03-22T16:32:20.984Z,21.68
2019-03-22T16:34:52.180Z,21.68
2019-03-22T16:37:23.040Z,21.69
2019-03-22T16:40:01.188Z,21.93
2019-03-22T16:42:34.179Z,21.84
2019-03-22T16:45:09.263Z,21.51
2019-03-22T16:47:40.499Z,21.14
2019-03-22T16:50:21.264Z,20.73
2019-03-22T16:52:55.369Z,20.39
2019-03-22T16:55:28.082Z,20.11
2019-03-22T16:58:01.866Z,19.81
2019-03-22T17:00:32.943Z,19.67
2019-03-22T17:03:05.480Z,19.59
2019-03-22T17:05:36.638Z,19.42
2019-03-22T17:08:07.689Z,19.37
2019-03-22T17:10:42.259Z,19.15
2019-03-22T17:13:16.747Z,18.97
2019-03-22T17:15:47.798Z,18.76
2019-03-22T17:18:19.315Z,18.42
2019-03-22T17:20:50.661Z,18.09
2019-03-22T17:23:21.721Z,17.81
2019-03-22T17:25:52.747Z,17.54
2019-03-22T17:28:23.782Z,17.31
2019-03-22T17:30:54.851Z,17.07
2019-03-22T17:33:25.889Z,16.86
2019-03-22T17:35:57.212Z,16.68
2019-03-22T17:38:28.240Z,16.53
2019-03-22T17:40:59.574Z,16.40
2019-03-22T17:43:31.182Z,16.28
2019-03-22T17:46:02.380Z,16.10
2019-03-22T17:48:33.738Z,15.88
2019-03-22T17:51:04.846Z,15.72
2019-03-22T17:53:35.906Z,15.56
2019-03-22T17:56:06.871Z,15.39
2019-03-22T17:58:37.842Z,15.22
2019-03-22T18:01:08.992Z,15.07
2019-03-22T18:03:39.938Z,14.87
2019-03-22T18:06:10.924Z,14.67
2019-03-22T18:08:41.882Z,14.69
2019-03-22T18:11:13.060Z,14.65
2019-03-22T18:13:44.020Z,14.59
2019-03-22T18:16:15.065Z,14.49
2019-03-22T18:18:46.033Z,14.41
2019-03-22T18:21:16.962Z,14.45
2019-03-22T18:23:47.978Z,14.49
2019-03-22T18:26:19.440Z,14.38
2019-03-22T18:28:50.454Z,14.19
2019-03-22T18:31:23.097Z,14.12
2019-03-22T18:33:54.247Z,13.87
2019-03-22T18:36:25.751Z,13.68
2019-03-22T18:38:58.423Z,13.51
2019-03-22T18:41:29.355Z,13.38
2019-03-22T18:44:00.363Z,13.23
2019-03-22T18:46:31.334Z,13.09
2019-03-22T18:49:02.261Z,12.97
2019-03-22T18:51:33.328Z,12.87
2019-03-22T18:54:04.375Z,12.75
2019-03-22T18:56:35.327Z,12.57
2019-03-22T18:59:07.002Z,12.44
2019-03-22T19:01:37.931Z,12.33
2019-03-22T19:04:12.007Z,12.20
2019-03-22T19:06:42.988Z,12.13
2019-03-22T19:09:14.009Z,11.98
2019-03-22T19:11:44.997Z,11.84
2019-03-22T19:14:15.942Z,11.71
2019-03-22T19:16:47.020Z,11.63
2019-03-22T19:19:17.991Z,11.53
2019-03-22T19:21:49.298Z,11.47
2019-03-22T19:24:22.427Z,11.41
2019-03-22T19:26:53.761Z,11.29
2019-03-22T19:29:24.742Z,11.23
2019-03-22T19:31:55.751Z,11.23
2019-03-22T19:34:29.443Z,11.27
2019-03-22T19:37:00.334Z,11.36
2019-03-22T19:39:31.250Z,11.31
2019-03-22T19:42:02.265Z,11.29
2019-03-22T19:44:53.988Z,11.19
2019-03-22T19:47:25.170Z,11.05
2019-03-22T19:50:00.342Z,10.85
2019-03-22T19:52:31.602Z,10.65
2019-03-22T19:55:02.565Z,10.47
2019-03-22T19:57:33.977Z,10.30
2019-03-22T20:00:07.766Z,10.23
2019-03-22T20:02:40.594Z,10.21
2019-03-22T20:05:13.796Z,10.14
2019-03-22T20:07:44.917Z,10.07
2019-03-22T20:10:15.967Z,10.03
2019-03-22T20:12:52.705Z,9.97
2019-03-22T20:15:24.369Z,9.91
2019-03-22T20:17:56.782Z,9.82
2019-03-22T20:20:28.024Z,9.68
2019-03-22T20:23:02.364Z,9.53
2019-03-22T20:25:33.552Z,9.39
2019-03-22T20:28:04.632Z,9.33
2019-03-22T20:30:35.650Z,9.29
2019-03-22T20:33:07.041Z,9.26
2019-03-22T20:35:38.016Z,9.21
2019-03-22T20:38:10.081Z,9.16
2019-03-22T20:40:41.048Z,9.12
2019-03-22T20:43:12.017Z,9.05
2019-03-22T20:45:43.600Z,8.96
2019-03-22T20:48:14.830Z,8.89
2019-03-22T20:50:48.137Z,8.74
2019-03-22T20:53:22.523Z,8.61
2019-03-22T21:00:13.821Z,8.44
2019-03-22T21:02:46.012Z,8.30
2019-03-22T21:05:26.955Z,8.23
2019-03-22T21:07:51.776Z,8.14
2019-03-22T21:10:26.006Z,8.20
2019-03-22T21:13:03.680Z,8.16
2019-03-22T21:15:36.605Z,8.10
2019-03-22T21:18:07.945Z,8.20
2019-03-22T21:20:38.970Z,8.20
2019-03-22T21:23:11.517Z,8.13
2019-03-22T21:25:43.416Z,8.04
2019-03-22T21:28:15.148Z,8.04
2019-03-22T21:30:47.062Z,8.02
2019-03-22T21:33:19.108Z,8.02
2019-03-22T21:35:53.106Z,8.07
2019-03-22T21:38:32.503Z,8.07
2019-03-22T21:41:05.621Z,8.00
2019-03-22T21:43:36.627Z,7.89
2019-03-22T21:46:07.683Z,7.84
2019-03-22T21:48:38.830Z,7.73
2019-03-22T21:51:09.940Z,7.66
2019-03-22T21:53:41.003Z,7.77
2019-03-22T21:56:12.312Z,7.85
2019-03-22T22:01:39.951Z,7.79
2019-03-22T22:04:11.679Z,7.72
2019-03-22T22:06:42.655Z,7.68
2019-03-22T22:09:13.650Z,7.72
2019-03-22T22:11:53.382Z,7.73
2019-03-22T22:14:24.371Z,7.70
2019-03-22T22:17:04.821Z,7.79
2019-03-22T22:19:39.063Z,7.77
2019-03-22T22:22:09.960Z,7.67
2019-03-22T22:24:40.904Z,7.50
2019-03-22T22:27:15.493Z,7.39
2019-03-22T22:29:47.593Z,7.36
2019-03-22T22:32:18.850Z,7.31
2019-03-22T22:34:49.830Z,7.27
2019-03-22T22:37:20.855Z,7.24
2019-03-22T22:39:55.430Z,7.18
2019-03-22T22:42:26.397Z,7.09
2019-03-22T22:44:59.200Z,6.98
2019-03-22T22:47:30.271Z,6.93
2019-03-22T22:50:01.361Z,6.88
2019-03-22T22:52:32.432Z,6.77
2019-03-22T22:55:03.375Z,6.65
2019-03-22T22:57:34.319Z,6.57
2019-03-22T23:00:16.785Z,6.47
2019-03-22T23:02:48.103Z,6.40
2019-03-22T23:05:19.069Z,6.33
2019-03-22T23:07:49.935Z,6.28
2019-03-22T23:10:20.818Z,6.24
2019-03-22T23:12:51.843Z,6.20
2019-03-22T23:15:22.869Z,6.09
2019-03-22T23:17:53.841Z,6.00
2019-03-22T23:20:24.807Z,5.91
2019-03-22T23:22:55.763Z,5.85
2019-03-22T23:25:26.668Z,5.79
2019-03-22T23:27:57.861Z,5.79
2019-03-22T23:30:28.891Z,5.73
2019-03-22T23:33:00.133Z,5.68
2019-03-22T23:35:31.266Z,5.62
2019-03-22T23:38:02.303Z,5.54
2019-03-22T23:40:33.202Z,5.47
2019-03-22T23:43:04.152Z,5.44
2019-03-22T23:45:35.311Z,5.45
2019-03-22T23:48:06.272Z,5.45
2019-03-22T23:50:37.418Z,5.43
2019-03-22T23:53:08.280Z,5.42
2019-03-22T23:55:39.255Z,5.36
2019-03-22T23:58:10.200Z,5.44
